createdAt,value
2022-11-16T00:02:32.050Z,5.20
2022-11-16T00:05:34.237Z,5.30
2022-11-16T00:08:39.367Z,5.40
2022-11-16T00:11:41.621Z,5.40
2022-11-16T00:14:43.813Z,5.30
2022-11-16T00:17:45.874Z,5.30
2022-11-16T00:20:52.992Z,5.40
2022-11-16T00:23:55.132Z,5.30
2022-11-16T00:26:57.285Z,5.50
2022-11-16T00:29:59.461Z,5.60
2022-11-16T00:33:02.985Z,5.70
2022-11-16T00:36:07.458Z,5.90
2022-11-16T00:39:13.658Z,6.00
2022-11-16T00:42:15.725Z,6.10
2022-11-16T00:45:17.939Z,6.20
2022-11-16T00:48:20.126Z,6.30
2022-11-16T00:51:22.356Z,6.30
2022-11-16T00:54:24.729Z,6.30
2022-11-16T00:57:26.880Z,6.40
2022-11-16T01:00:34.024Z,6.40
2022-11-16T01:03:37.744Z,6.30
2022-11-16T01:06:39.859Z,6.30
2022-11-16T01:09:41.999Z,6.30
2022-11-16T01:12:49.041Z,6.30
2022-11-16T01:15:51.185Z,6.30
2022-11-16T01:18:54.497Z,6.40
2022-11-16T01:21:56.741Z,6.40
2022-11-16T01:24:58.785Z,6.50
2022-11-16T01:28:00.841Z,6.50
2022-11-16T01:31:14.391Z,6.50
2022-11-16T01:34:17.241Z,6.60
2022-11-16T01:37:19.856Z,6.50
2022-11-16T01:40:22.112Z,6.40
2022-11-16T01:43:25.511Z,6.40
2022-11-16T01:46:33.029Z,6.40
2022-11-16T01:49:38.471Z,6.40
2022-11-16T01:52:52.763Z,6.40
2022-11-16T01:55:55.448Z,6.20
2022-11-16T01:59:20.881Z,6.10
2022-11-16T02:02:24.003Z,6.20
2022-11-16T02:05:39.050Z,6.20
2022-11-16T02:09:37.743Z,6.10
2022-11-16T02:13:38.461Z,6.10
2022-11-16T02:17:27.922Z,6.10
2022-11-16T02:21:10.556Z,6.10
2022-11-16T02:24:18.516Z,6.20
2022-11-16T02:28:02.664Z,6.10
2022-11-16T02:31:06.748Z,6.20
2022-11-16T02:34:10.593Z,6.30
2022-11-16T02:37:14.949Z,6.30
2022-11-16T02:40:17.947Z,6.30
2022-11-16T02:43:35.403Z,6.40
2022-11-16T02:46:38.598Z,6.40
2022-11-16T02:49:46.550Z,6.20
2022-11-16T02:52:48.697Z,6.30
2022-11-16T02:55:50.940Z,6.30
2022-11-16T02:58:53.024Z,6.40
2022-11-16T03:02:37.516Z,6.40
2022-11-16T03:05:54.609Z,6.50
2022-11-16T03:09:08.917Z,6.50
2022-11-16T03:12:15.028Z,6.50
2022-11-16T03:15:17.200Z,6.50
2022-11-16T03:18:19.344Z,6.60
2022-11-16T03:21:30.388Z,6.60
2022-11-16T03:24:32.564Z,6.40
2022-11-16T03:27:40.953Z,6.40
2022-11-16T03:30:49.783Z,6.40
2022-11-16T03:33:58.689Z,6.50
2022-11-16T03:37:00.851Z,6.50
2022-11-16T03:40:04.661Z,6.50
2022-11-16T03:43:08.297Z,6.50
2022-11-16T03:46:10.654Z,6.40
2022-11-16T03:49:14.533Z,6.40
2022-11-16T03:52:17.524Z,6.30
2022-11-16T03:55:19.922Z,6.30
2022-11-16T03:58:22.494Z,6.20
2022-11-16T04:01:24.710Z,6.20
2022-11-16T04:04:46.745Z,6.20
2022-11-16T04:08:07.824Z,6.30
2022-11-16T04:11:39.158Z,6.40
2022-11-16T04:15:01.620Z,6.50
2022-11-16T04:18:24.849Z,6.50
2022-11-16T04:21:58.601Z,6.30
2022-11-16T04:25:16.137Z,6.20
2022-11-16T04:28:22.336Z,6.00
2022-11-16T04:31:46.045Z,6.10
2022-11-16T04:35:06.468Z,5.90
2022-11-16T04:38:08.626Z,5.90
2022-11-16T04:41:31.621Z,5.80
2022-11-16T04:44:56.412Z,5.70
2022-11-16T04:48:01.406Z,5.80
2022-11-16T04:51:06.694Z,5.70
2022-11-16T04:54:09.582Z,5.70
2022-11-16T04:57:11.891Z,5.80
2022-11-16T05:00:14.570Z,5.80
2022-11-16T05:03:16.774Z,5.80
2022-11-16T05:06:19.729Z,5.80
2022-11-16T05:09:21.933Z,5.80
2022-11-16T05:12:26.794Z,5.70
2022-11-16T05:15:32.532Z,5.70
2022-11-16T05:18:35.598Z,5.70
2022-11-16T05:21:38.779Z,5.60
2022-11-16T05:24:41.523Z,5.60
2022-11-16T05:27:43.746Z,5.50
2022-11-16T05:30:46.450Z,5.50
2022-11-16T05:33:52.613Z,5.50
2022-11-16T05:36:55.853Z,5.50
2022-11-16T05:39:58.060Z,5.40
2022-11-16T05:43:09.879Z,5.60
2022-11-16T05:46:17.859Z,5.70
2022-11-16T05:49:20.545Z,5.80
2022-11-16T05:52:23.166Z,5.80
2022-11-16T05:55:25.939Z,5.70
2022-11-16T05:58:28.058Z,5.60
2022-11-16T06:01:30.306Z,5.50
2022-11-16T06:04:33.572Z,5.60
2022-11-16T06:07:36.159Z,5.60
2022-11-16T06:10:43.468Z,5.40
2022-11-16T06:13:45.613Z,5.40
2022-11-16T06:16:47.742Z,5.40
2022-11-16T06:19:49.805Z,5.40
2022-11-16T06:22:51.960Z,5.40
2022-11-16T06:25:57.347Z,5.40
2022-11-16T06:29:02.111Z,5.40
2022-11-16T06:32:04.455Z,5.40
2022-11-16T06:35:08.649Z,5.30
2022-11-16T06:38:18.324Z,5.30
2022-11-16T06:41:22.237Z,5.30
2022-11-16T06:44:25.864Z,5.40
2022-11-16T06:47:33.509Z,5.40
2022-11-16T06:50:36.603Z,5.40
2022-11-16T06:53:40.554Z,5.40
2022-11-16T06:56:42.972Z,5.50
2022-11-16T06:59:45.108Z,5.40
2022-11-16T07:02:47.577Z,5.50
2022-11-16T07:05:52.850Z,5.40
2022-11-16T07:08:56.461Z,5.50
2022-11-16T07:12:02.768Z,5.60
2022-11-16T07:15:10.713Z,5.50
2022-11-16T07:18:15.421Z,5.50
2022-11-16T07:21:17.927Z,5.60
2022-11-16T07:24:21.132Z,5.60
2022-11-16T07:27:23.286Z,5.70
2022-11-16T07:30:27.181Z,5.70
2022-11-16T07:33:49.497Z,5.70
2022-11-16T07:37:23.668Z,5.70
2022-11-16T07:40:26.487Z,5.60
2022-11-16T07:43:31.720Z,5.70
2022-11-16T07:46:46.924Z,5.70
2022-11-16T07:49:50.085Z,5.60
2022-11-16T07:52:58.117Z,5.70
2022-11-16T07:56:00.398Z,5.70
2022-11-16T07:59:06.070Z,5.70
2022-11-16T08:02:11.285Z,5.70
2022-11-16T08:05:15.684Z,5.70
2022-11-16T08:08:17.777Z,5.70
2022-11-16T08:11:20.161Z,5.70
2022-11-16T08:14:22.524Z,5.70
2022-11-16T08:17:26.032Z,5.80
2022-11-16T08:20:29.042Z,5.80
2022-11-16T08:23:31.398Z,5.80
2022-11-16T08:26:33.882Z,5.80
2022-11-16T08:29:41.904Z,5.80
2022-11-16T08:32:45.682Z,5.80
2022-11-16T08:35:49.048Z,5.80
2022-11-16T08:38:52.134Z,5.80
2022-11-16T08:41:55.893Z,5.80
2022-11-16T08:44:58.145Z,5.80
2022-11-16T08:48:03.936Z,5.80
2022-11-16T08:51:18.874Z,5.80
2022-11-16T08:54:28.868Z,5.80
2022-11-16T08:57:31.231Z,5.80
2022-11-16T09:00:36.726Z,5.80
2022-11-16T09:03:39.046Z,5.70
2022-11-16T09:06:41.065Z,5.80
2022-11-16T09:09:43.133Z,5.80
2022-11-16T09:12:45.179Z,5.80
2022-11-16T09:15:47.213Z,5.70
2022-11-16T09:18:50.894Z,5.70
2022-11-16T09:21:52.946Z,5.70
2022-11-16T09:24:55.005Z,5.80
2022-11-16T09:27:57.094Z,5.80
2022-11-16T09:31:04.331Z,5.80
2022-11-16T09:34:06.608Z,5.70
2022-11-16T09:37:08.662Z,5.80
2022-11-16T09:40:12.556Z,5.90
2022-11-16T09:43:51.085Z,5.80
2022-11-16T09:46:57.807Z,5.80
2022-11-16T09:50:03.688Z,5.90
2022-11-16T09:53:31.081Z,5.80
2022-11-16T09:56:37.634Z,5.80
2022-11-16T09:59:48.773Z,5.80
2022-11-16T10:02:59.691Z,5.80
2022-11-16T10:06:04.504Z,5.70
2022-11-16T10:09:11.153Z,5.90
2022-11-16T10:12:28.129Z,5.80
2022-11-16T10:16:11.836Z,5.80
2022-11-16T10:19:35.026Z,5.90
2022-11-16T10:23:15.414Z,5.90
2022-11-16T10:26:55.606Z,6.00
2022-11-16T10:30:16.176Z,6.10
2022-11-16T10:33:19.756Z,6.20
2022-11-16T10:36:22.430Z,6.30
2022-11-16T10:39:24.585Z,6.30
2022-11-16T10:42:33.590Z,6.30
2022-11-16T10:45:43.624Z,6.20
2022-11-16T10:49:13.162Z,6.20
2022-11-16T10:52:15.283Z,6.20
2022-11-16T10:55:17.461Z,6.30
2022-11-16T10:58:19.719Z,6.30
2022-11-16T11:01:51.137Z,6.20
2022-11-16T11:05:21.520Z,6.20
2022-11-16T11:08:31.256Z,6.20
2022-11-16T11:11:51.965Z,6.20
2022-11-16T11:15:26.142Z,6.10
2022-11-16T11:18:30.130Z,6.00
2022-11-16T11:21:32.230Z,5.90
2022-11-16T11:24:49.571Z,5.90
2022-11-16T11:27:53.333Z,6.00
2022-11-16T11:31:22.517Z,6.10
2022-11-16T11:34:29.345Z,6.10
2022-11-16T11:37:36.596Z,6.20
2022-11-16T11:40:38.670Z,6.20
2022-11-16T11:43:42.021Z,6.30
2022-11-16T11:51:01.231Z,6.30
2022-11-16T11:54:03.831Z,6.20
2022-11-16T11:57:08.246Z,6.20
2022-11-16T12:00:14.484Z,6.30
2022-11-16T12:03:19.319Z,6.30
2022-11-16T12:06:44.316Z,6.40
2022-11-16T12:10:15.726Z,6.30
2022-11-16T12:13:53.411Z,6.30
2022-11-16T12:17:30.208Z,6.30
2022-11-16T12:20:49.287Z,6.30
2022-11-16T12:24:28.903Z,6.40
2022-11-16T12:28:11.655Z,6.30
2022-11-16T12:31:48.824Z,6.20
2022-11-16T12:35:12.704Z,6.20
2022-11-16T12:38:23.141Z,6.30
2022-11-16T12:42:00.116Z,6.30
2022-11-16T12:45:51.576Z,6.30
2022-11-16T12:49:21.265Z,6.40
2022-11-16T12:52:36.475Z,6.50
2022-11-16T12:55:47.737Z,6.50
2022-11-16T12:59:18.499Z,6.60
2022-11-16T13:02:47.606Z,6.60
2022-11-16T13:06:00.237Z,6.50
2022-11-16T13:09:15.936Z,6.50
2022-11-16T13:12:23.333Z,6.50
2022-11-16T13:15:34.934Z,6.60
2022-11-16T13:18:40.414Z,6.60
2022-11-16T13:21:54.760Z,6.70
2022-11-16T13:25:27.398Z,6.70
2022-11-16T13:29:17.225Z,6.60
2022-11-16T13:32:34.011Z,6.50
2022-11-16T13:35:37.705Z,6.50
2022-11-16T13:38:53.080Z,6.60
2022-11-16T13:42:11.998Z,6.70
2022-11-16T13:45:20.125Z,6.80
2022-11-16T13:48:35.243Z,6.80
2022-11-16T13:51:37.819Z,6.80
2022-11-16T13:54:46.281Z,6.70
2022-11-16T13:57:51.391Z,6.60
2022-11-16T14:01:00.823Z,6.50
2022-11-16T14:04:55.937Z,6.50
2022-11-16T14:07:58.052Z,6.50
2022-11-16T14:11:00.984Z,6.50
2022-11-16T14:14:05.862Z,6.60
2022-11-16T14:17:07.986Z,6.60
2022-11-16T14:20:12.006Z,6.70
2022-11-16T14:23:43.031Z,6.70
2022-11-16T14:27:16.188Z,6.90
2022-11-16T14:30:21.700Z,7.00
2022-11-16T14:33:32.442Z,7.00
2022-11-16T14:36:42.723Z,7.00
2022-11-16T14:39:44.781Z,7.10
2022-11-16T14:43:14.902Z,7.30
2022-11-16T14:46:34.902Z,7.40
2022-11-16T14:49:36.969Z,7.40
2022-11-16T14:52:43.902Z,7.40
2022-11-16T14:55:46.293Z,7.60
2022-11-16T14:58:58.998Z,7.70
2022-11-16T15:02:10.714Z,7.70
2022-11-16T15:05:18.786Z,7.70
2022-11-16T15:08:23.589Z,7.70
2022-11-16T15:11:50.706Z,7.60
2022-11-16T15:14:54.297Z,7.70
2022-11-16T15:17:59.505Z,7.50
2022-11-16T15:21:06.546Z,7.60
2022-11-16T15:24:29.285Z,7.70
2022-11-16T15:27:40.985Z,7.70
2022-11-16T15:30:55.809Z,7.80
2022-11-16T15:33:57.908Z,7.60
2022-11-16T15:37:00.030Z,7.50
2022-11-16T15:40:03.300Z,7.50
2022-11-16T15:43:06.197Z,7.40
2022-11-16T15:46:08.312Z,7.40
2022-11-16T15:49:26.025Z,7.30
2022-11-16T15:52:49.456Z,7.10
2022-11-16T15:55:51.527Z,7.20
2022-11-16T15:58:54.917Z,7.10
2022-11-16T16:01:57.169Z,7.00
2022-11-16T16:04:59.217Z,6.90
2022-11-16T16:08:02.088Z,6.90
2022-11-16T16:11:05.386Z,7.00
2022-11-16T16:14:10.771Z,7.00
2022-11-16T16:17:24.756Z,6.90
2022-11-16T16:20:29.934Z,6.80
2022-11-16T16:23:32.396Z,6.80
2022-11-16T16:26:34.703Z,6.90
2022-11-16T16:29:36.833Z,6.90
2022-11-16T16:32:38.971Z,6.90
2022-11-16T16:35:40.997Z,7.00
2022-11-16T16:38:43.244Z,6.90
2022-11-16T16:41:45.330Z,7.00
2022-11-16T16:44:47.762Z,7.00
2022-11-16T16:47:50.309Z,7.00
2022-11-16T16:50:52.351Z,7.00
2022-11-16T16:53:54.394Z,7.00
2022-11-16T16:56:57.412Z,6.90
2022-11-16T16:59:59.558Z,7.00
2022-11-16T17:03:01.602Z,7.10
2022-11-16T17:06:03.701Z,7.00
2022-11-16T17:09:05.804Z,7.00
2022-11-16T17:12:13.054Z,7.10
2022-11-16T17:15:19.172Z,7.10
2022-11-16T17:18:22.185Z,7.20
2022-11-16T17:21:24.257Z,7.20
2022-11-16T17:24:26.343Z,7.20
2022-11-16T17:27:28.504Z,7.20
2022-11-16T17:30:30.601Z,7.20
2022-11-16T17:33:39.714Z,7.20
2022-11-16T17:36:42.924Z,7.20
2022-11-16T17:39:44.975Z,7.30
2022-11-16T17:42:47.042Z,7.30
2022-11-16T17:45:49.085Z,7.20
2022-11-16T17:48:51.359Z,7.30
2022-11-16T17:51:53.459Z,7.30
2022-11-16T17:54:55.505Z,7.30
2022-11-16T17:57:59.467Z,7.30
2022-11-16T18:01:01.645Z,7.30
2022-11-16T18:04:04.711Z,7.30
2022-11-16T18:07:06.791Z,7.30
2022-11-16T18:10:09.362Z,7.30
2022-11-16T18:13:11.443Z,7.40
2022-11-16T18:16:15.830Z,7.40
2022-11-16T18:19:18.777Z,7.40
2022-11-16T18:22:20.858Z,7.40
2022-11-16T18:25:26.550Z,7.30
2022-11-16T18:28:28.581Z,7.40
2022-11-16T18:31:32.964Z,7.40
2022-11-16T18:34:35.050Z,7.50
2022-11-16T18:37:37.165Z,7.50
2022-11-16T18:40:40.377Z,7.50
2022-11-16T18:43:54.086Z,7.40
2022-11-16T18:46:56.110Z,7.40
2022-11-16T18:49:59.390Z,7.40
2022-11-16T18:53:01.603Z,7.40
2022-11-16T18:56:04.756Z,7.50
2022-11-16T18:59:06.858Z,7.50
2022-11-16T19:02:12.514Z,7.50
2022-11-16T19:05:14.614Z,7.50
2022-11-16T19:08:16.635Z,7.50
2022-11-16T19:11:18.672Z,7.50
2022-11-16T19:14:20.707Z,7.40
2022-11-16T19:17:24.868Z,7.40
2022-11-16T19:20:27.121Z,7.40
2022-11-16T19:23:29.179Z,7.40
2022-11-16T19:26:31.296Z,7.40
2022-11-16T19:29:33.343Z,7.30
2022-11-16T19:32:35.405Z,7.30
2022-11-16T19:35:38.144Z,7.30
2022-11-16T19:38:40.297Z,7.30
2022-11-16T19:41:42.460Z,7.30
2022-11-16T19:44:44.661Z,7.30
2022-11-16T19:47:46.746Z,7.40
2022-11-16T19:50:48.784Z,7.40
2022-11-16T19:53:50.847Z,7.40
2022-11-16T19:56:55.259Z,7.40
2022-11-16T19:59:57.630Z,7.40
2022-11-16T20:03:00.090Z,7.40
2022-11-16T20:06:08.098Z,7.50
2022-11-16T20:09:12.136Z,7.50
2022-11-16T20:12:14.295Z,7.60
2022-11-16T20:15:16.460Z,7.50
2022-11-16T20:18:18.522Z,7.50
2022-11-16T20:21:34.586Z,7.50
2022-11-16T20:24:36.648Z,7.50
2022-11-16T20:27:38.669Z,7.50
2022-11-16T20:30:47.250Z,7.50
2022-11-16T20:34:11.344Z,7.50
2022-11-16T20:37:13.585Z,7.50
2022-11-16T20:40:15.873Z,7.50
2022-11-16T20:43:24.554Z,7.50
2022-11-16T20:46:29.450Z,7.50
2022-11-16T20:49:31.533Z,7.50
2022-11-16T20:52:34.271Z,7.50
2022-11-16T20:55:38.405Z,7.50
2022-11-16T20:58:40.781Z,7.60
2022-11-16T21:01:47.709Z,7.60
2022-11-16T21:04:49.873Z,7.50
2022-11-16T21:07:51.918Z,7.50
2022-11-16T21:10:54.090Z,7.40
2022-11-16T21:14:14.751Z,7.50
2022-11-16T21:17:16.785Z,7.40
2022-11-16T21:20:28.115Z,7.40
2022-11-16T21:23:33.224Z,7.30
2022-11-16T21:26:37.058Z,7.30
2022-11-16T21:29:39.115Z,7.30
2022-11-16T21:32:41.158Z,7.30
2022-11-16T21:35:43.210Z,7.30
2022-11-16T21:38:45.481Z,7.30
2022-11-16T21:41:47.518Z,7.20
2022-11-16T21:44:49.628Z,7.20
2022-11-16T21:47:51.705Z,7.20
2022-11-16T21:51:11.445Z,7.20
2022-11-16T21:54:13.836Z,7.20
2022-11-16T21:57:16.099Z,7.20
2022-11-16T22:00:19.647Z,7.20
2022-11-16T22:03:25.132Z,7.20
2022-11-16T22:06:45.925Z,7.10
2022-11-16T22:09:47.959Z,7.00
2022-11-16T22:12:50.025Z,7.00
2022-11-16T22:15:52.148Z,7.00
2022-11-16T22:18:54.208Z,7.10
2022-11-16T22:21:56.299Z,7.00
2022-11-16T22:24:58.572Z,7.10
2022-11-16T22:31:22.956Z,7.00
2022-11-16T22:34:25.513Z,7.10
2022-11-16T22:37:27.572Z,7.20
2022-11-16T22:40:29.668Z,7.20
2022-11-16T22:43:32.617Z,7.30
2022-11-16T22:46:34.977Z,7.30
2022-11-16T22:49:37.027Z,7.30
2022-11-16T22:52:39.102Z,7.20
2022-11-16T22:55:41.191Z,7.20
2022-11-16T22:58:43.272Z,7.30
2022-11-16T23:01:45.356Z,7.40
2022-11-16T23:04:47.494Z,7.60
2022-11-16T23:07:49.577Z,7.60
2022-11-16T23:11:34.633Z,7.60
2022-11-16T23:14:55.382Z,7.60
2022-11-16T23:17:57.804Z,7.60
2022-11-16T23:21:18.792Z,7.50
2022-11-16T23:24:39.639Z,7.60
2022-11-16T23:28:04.108Z,7.60
2022-11-16T23:31:06.410Z,7.50
2022-11-16T23:34:08.521Z,7.60
2022-11-16T23:37:10.650Z,7.50
2022-11-16T23:40:13.532Z,7.40
2022-11-16T23:43:34.498Z,7.30
2022-11-16T23:46:36.842Z,7.30
2022-11-16T23:49:38.982Z,7.30
2022-11-16T23:52:41.158Z,7.30
2022-11-16T23:55:43.237Z,7.40
2022-11-16T23:58:45.476Z,7.40
